createdAt,value
2017-12-14T00:01:34.221Z,12.67
2017-12-14T00:03:59.962Z,12.13
2017-12-14T00:06:25.726Z,13.27
2017-12-14T00:08:51.503Z,12.97
2017-12-14T00:11:17.259Z,11.93
2017-12-14T00:13:42.996Z,14.03
2017-12-14T00:16:08.765Z,12.23
2017-12-14T00:18:34.533Z,11.27
2017-12-14T00:21:00.290Z,10.10
2017-12-14T00:23:26.068Z,11.20
2017-12-14T00:25:51.838Z,11.97
2017-12-14T00:28:17.609Z,8.83
2017-12-14T00:30:43.371Z,7.60
2017-12-14T00:33:09.135Z,6.57
2017-12-14T00:35:34.889Z,7.07
2017-12-14T00:38:00.658Z,6.97
2017-12-14T00:40:26.417Z,7.10
2017-12-14T00:42:52.194Z,6.13
2017-12-14T00:45:17.952Z,4.83
2017-12-14T00:47:43.719Z,5.60
2017-12-14T00:50:09.499Z,5.70
2017-12-14T00:52:35.256Z,5.57
2017-12-14T00:55:01.021Z,6.07
2017-12-14T00:57:26.790Z,5.40
2017-12-14T00:59:52.557Z,5.37
2017-12-14T01:02:18.303Z,5.53
2017-12-14T01:04:44.068Z,6.00
2017-12-14T01:07:09.840Z,5.90
2017-12-14T01:09:35.595Z,5.43
2017-12-14T01:12:01.350Z,5.40
2017-12-14T01:14:27.169Z,4.83
2017-12-14T01:16:52.887Z,5.27
2017-12-14T01:19:18.640Z,5.30
2017-12-14T01:21:44.401Z,5.50
2017-12-14T01:24:10.148Z,5.20
2017-12-14T01:26:35.916Z,5.03
2017-12-14T01:29:01.652Z,4.27
2017-12-14T01:31:27.412Z,4.83
2017-12-14T01:33:53.188Z,3.60
2017-12-14T01:36:18.939Z,5.10
2017-12-14T01:38:44.693Z,4.40
2017-12-14T01:41:10.452Z,4.20
2017-12-14T01:43:36.210Z,5.17
2017-12-14T01:46:01.956Z,5.23
2017-12-14T01:48:27.736Z,5.77
2017-12-14T01:50:53.488Z,7.40
2017-12-14T01:53:19.257Z,6.73
2017-12-14T01:55:45.000Z,7.67
2017-12-14T01:58:10.754Z,8.57
2017-12-14T02:00:36.507Z,9.20
2017-12-14T02:03:02.271Z,11.33
2017-12-14T02:05:28.024Z,13.50
2017-12-14T02:07:53.796Z,15.43
2017-12-14T02:10:19.541Z,14.37
2017-12-14T02:12:45.290Z,13.83
2017-12-14T02:15:11.052Z,11.80
2017-12-14T02:17:36.805Z,13.50
2017-12-14T02:20:02.568Z,13.70
2017-12-14T02:22:28.320Z,13.80
2017-12-14T02:24:54.075Z,12.43
2017-12-14T02:27:19.822Z,12.87
2017-12-14T02:29:45.586Z,12.33
2017-12-14T02:32:11.350Z,13.00
2017-12-14T02:34:37.112Z,12.20
2017-12-14T02:37:02.874Z,11.83
2017-12-14T02:39:28.643Z,12.87
2017-12-14T02:41:54.411Z,12.60
2017-12-14T02:44:20.161Z,14.40
2017-12-14T02:46:45.904Z,13.73
2017-12-14T02:49:11.655Z,15.17
2017-12-14T02:51:37.409Z,14.97
2017-12-14T02:54:03.165Z,14.90
2017-12-14T02:56:28.949Z,16.03
2017-12-14T02:58:54.690Z,17.60
2017-12-14T03:01:20.460Z,15.57
2017-12-14T03:03:46.210Z,16.10
2017-12-14T03:06:11.960Z,15.83
2017-12-14T03:08:37.716Z,15.90
2017-12-14T03:11:03.549Z,14.53
2017-12-14T03:13:29.309Z,13.27
2017-12-14T03:15:55.081Z,12.03
2017-12-14T03:18:20.827Z,13.47
2017-12-14T03:20:46.617Z,9.90
2017-12-14T03:23:12.379Z,8.80
2017-12-14T03:25:38.132Z,7.83
2017-12-14T03:28:03.885Z,6.53
2017-12-14T03:30:29.632Z,5.20
2017-12-14T03:32:55.401Z,5.07
2017-12-14T03:35:21.165Z,3.23
2017-12-14T03:37:46.918Z,2.90
2017-12-14T03:40:12.697Z,2.93
2017-12-14T03:42:38.443Z,2.60
2017-12-14T03:45:04.210Z,2.13
2017-12-14T03:47:29.990Z,2.20
2017-12-14T03:49:55.749Z,2.23
2017-12-14T03:52:21.535Z,1.83
2017-12-14T03:54:47.266Z,1.70
2017-12-14T03:57:13.037Z,2.33
2017-12-14T03:59:38.783Z,1.90
2017-12-14T04:02:04.539Z,2.30
2017-12-14T04:04:30.312Z,2.20
2017-12-14T04:06:56.076Z,2.27
2017-12-14T04:09:21.832Z,2.80
2017-12-14T04:11:47.604Z,2.53
2017-12-14T04:14:13.359Z,1.70
2017-12-14T04:16:39.213Z,2.13
2017-12-14T04:19:05.686Z,2.30
2017-12-14T04:21:32.341Z,2.30
2017-12-14T04:23:58.707Z,2.17
2017-12-14T04:26:25.095Z,2.17
2017-12-14T04:28:51.814Z,1.80
2017-12-14T04:31:17.610Z,1.85
2017-12-14T04:33:43.388Z,2.10
2017-12-14T04:36:09.163Z,2.13
2017-12-14T04:38:34.926Z,2.97
2017-12-14T04:41:00.687Z,3.47
2017-12-14T04:43:26.453Z,3.77
2017-12-14T04:45:52.206Z,3.90
2017-12-14T04:48:17.965Z,5.83
2017-12-14T04:50:43.737Z,6.23
2017-12-14T04:53:09.508Z,5.93
2017-12-14T04:55:35.322Z,7.13
2017-12-14T04:58:01.087Z,7.70
2017-12-14T05:00:26.842Z,9.40
2017-12-14T05:02:52.608Z,8.27
2017-12-14T05:05:18.382Z,8.30
2017-12-14T05:07:44.168Z,7.90
2017-12-14T05:10:09.939Z,8.40
2017-12-14T05:12:35.746Z,7.70
2017-12-14T05:15:01.491Z,8.40
2017-12-14T05:17:27.239Z,7.27
2017-12-14T05:19:53.020Z,7.27
2017-12-14T05:22:18.803Z,5.83
2017-12-14T05:24:44.563Z,6.53
2017-12-14T05:27:10.335Z,6.60
2017-12-14T05:29:36.110Z,5.23
2017-12-14T05:32:01.866Z,5.20
2017-12-14T05:34:27.661Z,4.40
2017-12-14T05:36:53.415Z,4.60
2017-12-14T05:39:19.204Z,4.90
2017-12-14T05:41:44.946Z,4.90
2017-12-14T05:44:10.730Z,4.00
2017-12-14T05:46:36.500Z,5.00
2017-12-14T05:49:02.291Z,5.20
2017-12-14T05:51:28.038Z,5.37
2017-12-14T05:53:53.807Z,6.13
2017-12-14T05:56:19.591Z,5.57
2017-12-14T05:58:45.372Z,5.47
2017-12-14T06:01:11.148Z,6.43
2017-12-14T06:03:36.907Z,5.97
2017-12-14T06:06:02.751Z,5.77
2017-12-14T06:08:28.516Z,5.97
2017-12-14T06:10:54.287Z,5.30
2017-12-14T06:13:20.047Z,5.63
2017-12-14T06:15:45.816Z,5.47
2017-12-14T06:18:11.584Z,6.30
2017-12-14T06:20:37.359Z,5.40
2017-12-14T06:23:03.148Z,5.70
2017-12-14T06:25:28.946Z,6.13
2017-12-14T06:27:54.699Z,6.50
2017-12-14T06:30:20.467Z,6.13
2017-12-14T06:32:46.228Z,6.47
2017-12-14T06:35:12.002Z,7.97
2017-12-14T06:37:37.752Z,8.17
2017-12-14T06:40:03.525Z,7.30
2017-12-14T06:42:29.291Z,7.20
2017-12-14T06:44:55.088Z,8.70
2017-12-14T06:47:27.822Z,8.93
2017-12-14T06:49:53.604Z,8.38
2017-12-14T06:52:19.364Z,8.20
2017-12-14T06:54:45.127Z,8.10
2017-12-14T06:57:10.892Z,8.43
2017-12-14T06:59:36.655Z,8.00
2017-12-14T07:02:02.411Z,6.90
2017-12-14T07:04:28.167Z,9.53
2017-12-14T07:06:53.933Z,7.53
2017-12-14T07:09:19.742Z,7.57
2017-12-14T07:11:45.502Z,8.60
2017-12-14T07:14:11.257Z,8.17
2017-12-14T07:16:37.038Z,8.20
2017-12-14T07:19:02.795Z,7.97
2017-12-14T07:21:28.570Z,8.13
2017-12-14T07:23:54.351Z,7.87
2017-12-14T07:26:20.106Z,7.50
2017-12-14T07:28:45.875Z,8.80
2017-12-14T07:31:11.627Z,8.53
2017-12-14T07:33:38.364Z,9.67
2017-12-14T07:36:04.162Z,9.43
2017-12-14T07:38:29.942Z,11.20
2017-12-14T07:40:55.718Z,9.87
2017-12-14T07:43:21.507Z,9.93
2017-12-14T07:46:08.303Z,11.37
2017-12-14T07:48:34.084Z,10.75
2017-12-14T07:50:59.872Z,12.37
2017-12-14T07:53:25.659Z,12.57
2017-12-14T07:55:51.437Z,13.33
2017-12-14T07:58:17.202Z,13.47
2017-12-14T08:00:42.958Z,14.33
2017-12-14T08:03:08.740Z,13.60
2017-12-14T08:05:34.522Z,13.97
2017-12-14T08:08:00.286Z,14.03
2017-12-14T08:10:26.043Z,15.00
2017-12-14T08:12:51.801Z,14.53
2017-12-14T08:15:17.555Z,14.57
2017-12-14T08:17:43.367Z,13.13
2017-12-14T08:20:09.133Z,13.40
2017-12-14T08:22:34.917Z,13.07
2017-12-14T08:25:00.701Z,13.57
2017-12-14T08:27:26.459Z,13.17
2017-12-14T08:29:52.231Z,14.57
2017-12-14T08:32:17.997Z,14.47
2017-12-14T08:34:43.775Z,14.03
2017-12-14T08:37:09.535Z,13.90
2017-12-14T08:39:35.333Z,13.60
2017-12-14T08:42:01.095Z,13.93
2017-12-14T08:44:26.860Z,15.20
2017-12-14T08:46:52.620Z,14.90
2017-12-14T08:49:18.375Z,15.77
2017-12-14T08:51:44.135Z,16.27
2017-12-14T08:54:09.895Z,17.87
2017-12-14T08:56:35.658Z,16.57
2017-12-14T08:59:01.414Z,16.07
2017-12-14T09:01:27.172Z,16.40
2017-12-14T09:03:52.928Z,15.57
2017-12-14T09:06:18.710Z,18.13
2017-12-14T09:08:44.467Z,16.13
2017-12-14T09:11:10.236Z,17.17
2017-12-14T09:13:35.982Z,16.00
2017-12-14T09:16:01.747Z,16.67
2017-12-14T09:18:27.498Z,15.57
2017-12-14T09:20:53.280Z,18.53
2017-12-14T09:23:19.055Z,15.30
2017-12-14T09:25:44.827Z,16.40
2017-12-14T09:28:10.596Z,14.17
2017-12-14T09:30:36.382Z,15.00
2017-12-14T09:33:02.141Z,14.77
2017-12-14T09:35:27.894Z,14.17
2017-12-14T09:37:53.662Z,13.83
2017-12-14T09:40:19.414Z,13.40
2017-12-14T09:42:45.189Z,12.70
2017-12-14T09:45:10.955Z,12.47
2017-12-14T09:47:36.731Z,13.27
2017-12-14T09:50:02.499Z,13.33
2017-12-14T09:52:28.266Z,10.70
2017-12-14T09:54:54.019Z,11.03
2017-12-14T09:57:19.783Z,11.03
2017-12-14T09:59:45.531Z,10.53
2017-12-14T10:02:11.315Z,12.73
2017-12-14T10:04:37.067Z,10.63
2017-12-14T10:07:02.867Z,9.80
2017-12-14T10:09:28.624Z,11.67
2017-12-14T10:11:54.371Z,11.40
2017-12-14T10:14:20.140Z,10.00
2017-12-14T10:16:45.904Z,10.97
2017-12-14T10:19:11.683Z,9.63
2017-12-14T10:21:37.447Z,9.23
2017-12-14T10:24:03.225Z,8.27
2017-12-14T10:26:28.970Z,7.13
2017-12-14T10:28:54.746Z,6.97
2017-12-14T10:31:20.534Z,7.20
2017-12-14T10:33:46.299Z,6.20
2017-12-14T10:36:12.058Z,6.20
2017-12-14T10:38:37.807Z,6.53
2017-12-14T10:41:06.243Z,5.93
2017-12-14T10:43:33.522Z,5.22
2017-12-14T10:45:59.310Z,5.35
2017-12-14T10:48:25.212Z,5.53
2017-12-14T10:50:59.697Z,5.00
2017-12-14T10:53:28.232Z,5.30
2017-12-14T10:55:55.899Z,5.12
2017-12-14T10:58:21.781Z,6.15
2017-12-14T11:00:53.731Z,6.47
2017-12-14T11:03:19.766Z,4.85
2017-12-14T11:05:49.212Z,5.22
2017-12-14T11:08:15.492Z,6.18
2017-12-14T11:10:44.051Z,4.80
2017-12-14T11:13:10.946Z,5.55
2017-12-14T11:15:36.768Z,5.28
2017-12-14T11:18:02.531Z,5.53
2017-12-14T11:20:28.311Z,5.10
2017-12-14T11:22:54.056Z,5.10
2017-12-14T11:25:19.830Z,4.83
2017-12-14T11:27:45.606Z,4.63
2017-12-14T11:30:11.512Z,4.83
2017-12-14T11:32:37.280Z,4.60
2017-12-14T11:35:03.142Z,4.80
2017-12-14T11:37:28.907Z,5.30
2017-12-14T11:39:54.675Z,5.13
2017-12-14T11:42:20.500Z,5.23
2017-12-14T11:44:46.293Z,5.70
2017-12-14T11:47:12.076Z,6.07
2017-12-14T11:49:37.843Z,5.73
2017-12-14T11:52:03.608Z,6.30
2017-12-14T11:54:29.368Z,6.13
2017-12-14T11:56:55.149Z,6.97
2017-12-14T11:59:20.949Z,7.77
2017-12-14T12:01:46.835Z,6.83
2017-12-14T12:04:12.656Z,7.27
2017-12-14T12:06:38.428Z,7.37
2017-12-14T12:09:04.243Z,7.70
2017-12-14T12:11:30.109Z,7.37
2017-12-14T12:13:55.884Z,8.60
2017-12-14T12:16:21.683Z,8.50
2017-12-14T12:18:47.460Z,8.10
2017-12-14T12:21:13.243Z,8.27
2017-12-14T12:23:39.015Z,9.20
2017-12-14T12:26:04.788Z,9.17
2017-12-14T12:28:30.548Z,8.77
2017-12-14T12:30:56.307Z,9.43
2017-12-14T12:33:22.104Z,10.17
2017-12-14T12:35:47.865Z,9.50
2017-12-14T12:38:13.628Z,9.40
2017-12-14T12:40:39.400Z,10.80
2017-12-14T12:43:05.352Z,9.90
2017-12-14T12:45:31.209Z,10.40
2017-12-14T12:47:57.105Z,10.07
2017-12-14T12:50:22.973Z,10.27
2017-12-14T12:52:48.770Z,10.83
2017-12-14T12:55:14.531Z,11.07
2017-12-14T12:57:40.391Z,10.43
2017-12-14T13:00:06.213Z,10.43
2017-12-14T13:02:31.980Z,10.73
2017-12-14T13:04:57.743Z,11.03
2017-12-14T13:07:23.542Z,10.80
2017-12-14T13:09:49.275Z,10.90
2017-12-14T13:12:15.047Z,10.47
2017-12-14T13:14:40.804Z,11.43
2017-12-14T13:17:06.566Z,10.17
2017-12-14T13:19:32.315Z,11.00
2017-12-14T13:21:58.071Z,10.70
2017-12-14T13:24:23.836Z,9.80
2017-12-14T13:26:49.583Z,10.23
2017-12-14T13:29:15.358Z,10.30
2017-12-14T13:31:41.124Z,9.73
2017-12-14T13:34:06.899Z,9.20
2017-12-14T13:36:32.660Z,8.97
2017-12-14T13:38:58.447Z,8.27
2017-12-14T13:41:24.207Z,9.03
2017-12-14T13:43:49.973Z,8.00
2017-12-14T13:46:15.739Z,8.67
2017-12-14T13:48:41.515Z,8.07
2017-12-14T13:51:07.285Z,7.70
2017-12-14T13:53:33.044Z,7.23
2017-12-14T13:55:58.822Z,6.67
2017-12-14T13:58:24.695Z,6.93
2017-12-14T14:00:50.644Z,7.83
2017-12-14T14:03:16.507Z,7.57
2017-12-14T14:05:42.331Z,8.17
2017-12-14T14:08:08.124Z,9.10
2017-12-14T14:10:33.956Z,8.37
2017-12-14T14:12:59.863Z,9.10
2017-12-14T14:15:25.644Z,8.07
2017-12-14T14:17:51.511Z,9.07
2017-12-14T14:20:17.340Z,8.33
2017-12-14T14:22:43.104Z,8.17
2017-12-14T14:25:08.880Z,6.93
2017-12-14T14:27:34.670Z,5.80
2017-12-14T14:30:00.441Z,6.30
2017-12-14T14:32:26.235Z,6.13
2017-12-14T14:34:51.990Z,6.53
2017-12-14T14:37:17.755Z,6.70
2017-12-14T14:39:43.549Z,6.67
2017-12-14T14:42:09.308Z,6.60
2017-12-14T14:44:35.192Z,8.03
2017-12-14T14:47:01.093Z,8.33
2017-12-14T14:49:26.859Z,9.17
2017-12-14T14:51:52.751Z,9.60
2017-12-14T14:54:18.575Z,9.33
2017-12-14T14:56:44.555Z,10.77
2017-12-14T14:59:10.375Z,11.85
2017-12-14T15:01:36.122Z,11.93
2017-12-14T15:04:01.879Z,13.43
2017-12-14T15:06:27.798Z,13.47
2017-12-14T15:08:53.613Z,15.03
2017-12-14T15:11:19.372Z,14.97
2017-12-14T15:13:45.262Z,15.30
2017-12-14T15:16:11.007Z,15.17
2017-12-14T15:18:36.853Z,16.27
2017-12-14T15:21:02.764Z,16.60
2017-12-14T15:23:28.544Z,14.60
2017-12-14T15:25:54.360Z,15.10
2017-12-14T15:28:20.268Z,16.17
2017-12-14T15:30:46.027Z,16.67
2017-12-14T15:33:11.799Z,17.17
2017-12-14T15:35:37.551Z,17.60
2017-12-14T15:38:03.307Z,18.00
2017-12-14T15:40:29.136Z,17.20
2017-12-14T15:42:54.903Z,20.77
2017-12-14T15:45:20.667Z,18.53
2017-12-14T15:47:46.437Z,18.57
2017-12-14T15:50:12.378Z,18.30
2017-12-14T15:52:38.214Z,19.07
2017-12-14T15:55:04.884Z,20.90
2017-12-14T15:57:30.642Z,20.45
2017-12-14T15:59:56.403Z,19.67
2017-12-14T16:02:22.151Z,19.33
2017-12-14T16:04:48.000Z,20.27
2017-12-14T16:07:13.772Z,21.20
2017-12-14T16:09:39.569Z,22.50
2017-12-14T16:12:05.375Z,22.20
2017-12-14T16:14:31.148Z,20.60
2017-12-14T16:16:56.931Z,21.87
2017-12-14T16:19:22.981Z,24.00
2017-12-14T16:21:50.080Z,23.17
2017-12-14T16:24:15.867Z,22.33
2017-12-14T16:26:41.685Z,22.30
2017-12-14T16:29:07.446Z,22.07
2017-12-14T16:31:33.234Z,22.80
2017-12-14T16:33:58.994Z,23.47
2017-12-14T16:36:24.755Z,22.73
2017-12-14T16:38:50.517Z,21.23
2017-12-14T16:41:16.447Z,23.23
2017-12-14T16:43:42.237Z,20.03
2017-12-14T16:46:07.995Z,20.37
2017-12-14T16:48:33.821Z,19.53
2017-12-14T16:50:59.569Z,20.57
2017-12-14T16:53:25.330Z,19.57
2017-12-14T16:55:51.151Z,20.03
2017-12-14T16:58:16.972Z,20.13
2017-12-14T17:00:42.739Z,17.80
2017-12-14T17:03:08.610Z,18.03
2017-12-14T17:05:34.493Z,18.33
2017-12-14T17:08:00.298Z,17.97
2017-12-14T17:10:26.055Z,18.70
2017-12-14T17:12:51.823Z,17.53
2017-12-14T17:15:17.566Z,19.40
2017-12-14T17:17:43.335Z,20.47
2017-12-14T17:20:09.075Z,19.80
2017-12-14T17:22:34.831Z,19.07
2017-12-14T17:25:00.586Z,18.23
2017-12-14T17:27:26.355Z,20.37
2017-12-14T17:29:52.231Z,18.97
2017-12-14T17:32:18.324Z,19.03
2017-12-14T17:34:44.140Z,18.35
2017-12-14T17:37:09.903Z,18.27
2017-12-14T17:39:35.652Z,18.63
2017-12-14T17:42:01.442Z,19.47
2017-12-14T17:44:27.211Z,17.37
2017-12-14T17:46:52.968Z,18.80
2017-12-14T17:49:18.726Z,17.37
2017-12-14T17:51:44.503Z,16.40
2017-12-14T17:54:10.291Z,16.27
2017-12-14T17:56:36.071Z,17.63
2017-12-14T17:59:01.840Z,17.00
2017-12-14T18:01:27.603Z,16.93
2017-12-14T18:03:53.378Z,15.53
2017-12-14T18:06:19.144Z,16.57
2017-12-14T18:08:44.899Z,17.03
2017-12-14T18:11:10.694Z,16.60
2017-12-14T18:13:36.467Z,18.10
2017-12-14T18:16:02.227Z,17.87
2017-12-14T18:18:27.995Z,18.43
2017-12-14T18:20:53.744Z,17.90
2017-12-14T18:23:19.525Z,18.67
2017-12-14T18:25:45.295Z,19.20
2017-12-14T18:28:11.095Z,19.60
2017-12-14T18:30:36.863Z,18.83
2017-12-14T18:33:02.657Z,19.20
2017-12-14T18:35:28.408Z,17.90
2017-12-14T18:37:54.196Z,18.87
2017-12-14T18:40:19.980Z,18.63
2017-12-14T18:42:45.759Z,19.33
2017-12-14T18:45:11.551Z,19.33
2017-12-14T18:47:37.311Z,19.50
2017-12-14T18:50:03.074Z,20.07
2017-12-14T18:52:28.831Z,21.13
2017-12-14T18:54:54.603Z,20.57
2017-12-14T18:57:21.147Z,21.70
2017-12-14T18:59:46.948Z,20.20
2017-12-14T19:02:12.714Z,22.20
2017-12-14T19:04:38.477Z,24.23
2017-12-14T19:07:04.261Z,21.33
2017-12-14T19:09:30.019Z,21.17
2017-12-14T19:11:55.816Z,22.70
2017-12-14T19:14:21.576Z,19.57
2017-12-14T19:16:47.352Z,22.43
2017-12-14T19:19:13.112Z,21.87
2017-12-14T19:21:38.904Z,22.03
2017-12-14T19:24:04.677Z,21.90
2017-12-14T19:26:30.447Z,24.13
2017-12-14T19:28:56.191Z,23.67
2017-12-14T19:31:21.999Z,25.27
2017-12-14T19:33:47.756Z,23.80
2017-12-14T19:36:13.559Z,25.00
2017-12-14T19:38:39.314Z,27.23
2017-12-14T19:41:05.103Z,24.70
2017-12-14T19:43:30.896Z,27.47
2017-12-14T19:45:56.680Z,25.63
2017-12-14T19:48:22.470Z,26.13
2017-12-14T19:50:48.231Z,25.10
2017-12-14T19:53:13.992Z,26.73
2017-12-14T19:55:39.767Z,25.93
2017-12-14T19:58:05.547Z,25.00
2017-12-14T20:00:31.332Z,26.70
2017-12-14T20:02:57.099Z,27.43
2017-12-14T20:05:22.853Z,26.03
2017-12-14T20:07:48.618Z,27.20
2017-12-14T20:10:14.381Z,28.43
2017-12-14T20:12:40.155Z,27.03
2017-12-14T20:15:05.933Z,27.33
2017-12-14T20:17:31.703Z,26.60
2017-12-14T20:19:57.458Z,26.73
2017-12-14T20:22:23.235Z,28.17
2017-12-14T20:24:49.013Z,28.37
2017-12-14T20:27:14.809Z,29.60
2017-12-14T20:29:40.587Z,29.57
2017-12-14T20:32:06.346Z,28.33
2017-12-14T20:34:32.106Z,27.83
2017-12-14T20:36:57.884Z,29.73
2017-12-14T20:39:23.655Z,28.57
2017-12-14T20:41:49.419Z,28.20
2017-12-14T20:44:15.223Z,26.77
2017-12-14T20:46:40.994Z,29.13
2017-12-14T20:49:06.743Z,29.07
2017-12-14T20:51:32.502Z,27.83
2017-12-14T20:53:58.327Z,29.17
2017-12-14T20:56:24.078Z,30.93
2017-12-14T20:58:49.931Z,29.27
2017-12-14T21:01:15.699Z,28.40
2017-12-14T21:03:41.460Z,30.53
2017-12-14T21:06:07.240Z,28.83
2017-12-14T21:08:33.012Z,26.63
2017-12-14T21:10:58.822Z,27.80
2017-12-14T21:13:24.580Z,28.90
2017-12-14T21:15:50.351Z,26.43
2017-12-14T21:18:16.130Z,28.40
2017-12-14T21:20:41.912Z,26.93
2017-12-14T21:23:07.697Z,27.23
2017-12-14T21:25:33.455Z,26.80
2017-12-14T21:27:59.247Z,26.40
2017-12-14T21:30:25.018Z,27.07
2017-12-14T21:32:50.819Z,28.67
2017-12-14T21:35:16.578Z,29.27
2017-12-14T21:37:42.354Z,27.30
2017-12-14T21:40:08.116Z,28.53
2017-12-14T21:42:33.893Z,27.60
2017-12-14T21:44:59.673Z,28.83
2017-12-14T21:47:31.690Z,28.17
2017-12-14T21:49:57.490Z,28.77
2017-12-14T21:52:23.268Z,28.40
2017-12-14T21:54:49.016Z,29.60
2017-12-14T21:57:14.799Z,29.60
2017-12-14T21:59:40.591Z,29.57
2017-12-14T22:02:06.371Z,29.77
2017-12-14T22:04:32.148Z,29.47
2017-12-14T22:06:57.910Z,30.17
2017-12-14T22:09:23.684Z,29.17
2017-12-14T22:11:49.445Z,30.93
2017-12-14T22:14:15.216Z,30.17
2017-12-14T22:16:40.989Z,31.17
2017-12-14T22:19:06.763Z,31.20
2017-12-14T22:21:32.531Z,29.60
2017-12-14T22:23:58.300Z,30.80
2017-12-14T22:26:24.065Z,30.73
2017-12-14T22:28:49.815Z,30.43
2017-12-14T22:31:15.582Z,32.07
2017-12-14T22:33:41.351Z,31.63
2017-12-14T22:36:07.156Z,31.27
2017-12-14T22:38:32.909Z,31.33
2017-12-14T22:40:58.674Z,32.40
2017-12-14T22:43:24.432Z,32.90
2017-12-14T22:45:50.208Z,32.23
2017-12-14T22:48:15.969Z,32.17
2017-12-14T22:50:41.738Z,31.40
2017-12-14T22:53:07.507Z,34.20
2017-12-14T22:55:33.280Z,33.17
2017-12-14T22:57:59.032Z,34.43
2017-12-14T23:00:24.838Z,33.10
2017-12-14T23:02:50.595Z,33.20
2017-12-14T23:05:16.350Z,33.10
2017-12-14T23:07:42.122Z,33.77
2017-12-14T23:10:07.904Z,32.33
2017-12-14T23:12:33.666Z,32.47
2017-12-14T23:14:59.428Z,33.30
2017-12-14T23:17:25.203Z,33.57
2017-12-14T23:19:50.962Z,35.30
2017-12-14T23:22:16.735Z,35.70
2017-12-14T23:24:42.488Z,33.70
2017-12-14T23:27:08.255Z,35.57
2017-12-14T23:29:34.003Z,35.83
2017-12-14T23:31:59.811Z,37.03
2017-12-14T23:34:25.599Z,35.30
2017-12-14T23:36:51.390Z,35.93
2017-12-14T23:39:17.162Z,35.73
2017-12-14T23:41:42.937Z,34.80
2017-12-14T23:44:08.704Z,34.07
2017-12-14T23:46:34.465Z,34.20
2017-12-14T23:49:00.253Z,34.87
2017-12-14T23:51:26.006Z,34.80
2017-12-14T23:53:51.775Z,33.47
2017-12-14T23:56:17.535Z,33.27
2017-12-14T23:58:43.321Z,33.40
